Time;durP1;ratioP1;P1;durP2;ratioP2;P2;SDS_P1;SDS_P2;PMS_P1;PMS_P2;Temp;Humidity;BMP_temperature;BMP_pressure;BME280_temperature;BME280_humidity;BME280_pressure;Samples;Min_cycle;Max_cycle;Signal;HPM_P1;HPM_P2
2022/07/29 00:01:43;;;;;;;11.00;7.13;;;614.40;2432.00;;;;;;6277319;22;20436;-88
2022/07/29 00:04:10;;;;;;;10.07;6.78;;;614.40;2432.00;;;;;;6277696;22;20057;-87
2022/07/29 00:06:36;;;;;;;10.60;7.43;;;589.40;2432.00;;;;;;6277560;22;20003;-86
2022/07/29 00:09:03;;;;;;;10.20;6.43;;;589.70;2432.00;;;;;;6277698;22;20481;-89
2022/07/29 00:11:29;;;;;;;7.45;5.85;;;589.70;2432.00;;;;;;6277390;22;20027;-89
2022/07/29 00:13:55;;;;;;;8.60;5.60;;;589.70;2432.00;;;;;;6277377;22;20019;-86
2022/07/29 00:16:21;;;;;;;10.63;6.45;;;614.70;2432.00;;;;;;6277461;22;20341;-90
2022/07/29 00:18:48;;;;;;;9.98;6.78;;;589.70;2432.00;;;;;;6277049;22;20011;-89
2022/07/29 00:21:14;;;;;;;9.60;6.03;;;589.10;2432.00;;;;;;6277443;22;19996;-88
2022/07/29 00:23:40;;;;;;;7.97;6.15;;;589.60;2432.00;;;;;;6277360;22;20081;-87
2022/07/29 00:26:06;;;;;;;9.30;6.60;;;589.40;2432.00;;;;;;6277346;22;20000;-89
2022/07/29 00:28:33;;;;;;;10.23;6.78;;;589.30;2432.00;;;;;;6277468;22;20003;-86
2022/07/29 00:30:59;;;;;;;9.50;6.20;;;589.40;2432.00;;;;;;6277280;22;19999;-88
2022/07/29 00:33:25;;;;;;;9.07;5.85;;;589.30;2432.00;;;;;;6277221;22;20003;-87
2022/07/29 00:35:51;;;;;;;9.18;6.80;;;589.40;2432.00;;;;;;6277782;22;20312;-90
2022/07/29 00:38:20;;;;;;;8.07;6.13;;;589.20;2432.00;;;;;;6277145;22;20073;-89
2022/07/29 00:40:46;;;;;;;11.00;6.30;;;589.20;2432.00;;;;;;6277166;22;20000;-89
2022/07/29 00:43:14;;;;;;;9.32;6.78;;;589.70;2432.00;;;;;;6276642;22;20073;-87
2022/07/29 00:45:41;;;;;;;9.38;6.60;;;589.40;2432.00;;;;;;6277155;22;20000;-88
2022/07/29 00:48:08;;;;;;;11.90;6.85;;;589.40;2432.00;;;;;;6277353;22;20004;-89
2022/07/29 00:50:35;;;;;;;8.30;6.25;;;589.20;2432.00;;;;;;6276981;22;20083;-89
2022/07/29 00:53:02;;;;;;;7.53;6.68;;;589.20;2432.00;;;;;;6276915;22;20003;-87
2022/07/29 00:55:29;;;;;;;11.13;6.97;;;589.40;2432.00;;;;;;6277130;22;20004;-88
2022/07/29 00:57:58;;;;;;;9.15;6.30;;;589.60;2432.00;;;;;;6277042;22;20019;-89
2022/07/29 01:00:26;;;;;;;13.32;6.90;;;589.40;2432.00;;;;;;6275941;22;20015;-88
2022/07/29 01:02:53;;;;;;;11.38;5.85;;;589.40;2432.00;;;;;;6276798;22;20006;-89
2022/07/29 01:05:20;;;;;;;13.32;7.47;;;589.30;2432.00;;;;;;6277046;22;20002;-88
2022/07/29 01:07:51;;;;;;;8.52;6.30;;;589.20;2432.00;;;;;;6276875;22;20109;-86
2022/07/29 01:10:19;;;;;;;10.07;6.60;;;589.00;2432.00;;;;;;6277121;22;20074;-87
2022/07/29 01:12:48;;;;;;;14.07;6.63;;;589.00;2432.00;;;;;;6277058;22;20440;-86
2022/07/29 01:15:15;;;;;;;11.70;6.75;;;589.00;2432.00;;;;;;6276762;22;20010;-89
2022/07/29 01:17:56;;;;;;;8.35;6.22;;;589.00;2432.00;;;;;;6277141;22;20006;-87
2022/07/29 01:20:33;;;;;;;10.00;6.60;;;589.10;2432.00;;;;;;6276654;22;20000;-88
2022/07/29 01:23:27;;;;;;;8.52;6.55;;;589.00;2432.00;;;;;;6276931;22;20367;-89
2022/07/29 01:26:28;;;;;;;9.25;6.78;;;588.90;2432.00;;;;;;6277337;22;20000;-86
2022/07/29 01:28:57;;;;;;;9.65;6.72;;;588.90;2432.00;;;;;;6276500;22;20011;-87
2022/07/29 01:31:48;;;;;;;11.27;8.73;;;588.90;2432.00;;;;;;6276707;22;20008;-86
2022/07/29 01:34:34;;;;;;;8.33;7.43;;;588.90;2432.00;;;;;;6276902;22;20031;-87
2022/07/29 01:37:28;;;;;;;9.02;7.50;;;589.20;2432.00;;;;;;6277156;22;20010;-86
2022/07/29 01:39:57;;;;;;;14.75;7.93;;;588.90;2432.00;;;;;;6258366;22;20328;-87
2022/07/29 01:42:32;;;;;;;9.80;7.82;;;589.00;2432.00;;;;;;6276550;22;20000;-88
2022/07/29 01:45:10;;;;;;;15.82;8.52;;;564.10;2432.00;;;;;;6276952;22;19992;-87
2022/07/29 01:47:46;;;;;;;9.32;7.45;;;564.10;2432.00;;;;;;6277004;22;20405;-88
2022/07/29 01:50:16;;;;;;;12.57;7.80;;;588.80;2432.00;;;;;;6276526;22;20000;-89
2022/07/29 01:52:51;;;;;;;15.45;7.60;;;563.80;2432.00;;;;;;6277328;22;19996;-86
2022/07/29 01:55:20;;;;;;;9.55;7.75;;;564.10;2432.00;;;;;;6276372;22;20091;-86
2022/07/29 01:57:48;;;;;;;12.38;8.15;;;564.00;2432.00;;;;;;6276746;22;20004;-88
2022/07/29 02:00:18;;;;;;;11.38;7.45;;;564.10;2432.00;;;;;;6276507;22;20019;-86
2022/07/29 02:02:47;;;;;;;13.38;7.55;;;564.10;2432.00;;;;;;6276541;22;20002;-85
2022/07/29 02:05:17;;;;;;;13.20;8.48;;;588.80;2432.00;;;;;;6276714;22;20317;-86
2022/07/29 02:07:46;;;;;;;10.30;7.28;;;588.80;2432.00;;;;;;6276302;22;20413;-87
2022/07/29 02:10:14;;;;;;;12.57;8.07;;;564.10;2432.00;;;;;;6276711;22;19996;-87
2022/07/29 02:12:42;;;;;;;12.30;7.38;;;588.80;2432.00;;;;;;6276702;22;20000;-87
2022/07/29 02:15:11;;;;;;;10.93;7.30;;;588.90;2432.00;;;;;;6276601;22;20002;-87
2022/07/29 02:17:46;;;;;;;12.13;7.95;;;588.90;2432.00;;;;;;6276398;22;20483;-87
2022/07/29 02:20:13;;;;;;;9.52;7.55;;;588.90;2432.00;;;;;;6276532;22;20000;-86
2022/07/29 02:22:41;;;;;;;10.90;7.18;;;588.90;2432.00;;;;;;6276720;22;20002;-86
2022/07/29 02:25:12;;;;;;;11.45;7.45;;;588.90;2432.00;;;;;;6276404;22;19999;-86
2022/07/29 02:27:41;;;;;;;9.97;7.60;;;588.80;2432.00;;;;;;6276772;22;20002;-88
2022/07/29 02:30:09;;;;;;;10.10;8.73;;;564.00;2432.00;;;;;;6276538;22;20027;-88
2022/07/29 02:32:37;;;;;;;12.65;8.57;;;564.00;2432.00;;;;;;6280673;22;20053;-84
2022/07/29 02:35:04;;;;;;;12.25;7.38;;;563.90;2432.00;;;;;;6284302;22;20026;-85
2022/07/29 02:37:32;;;;;;;10.80;7.30;;;564.10;2432.00;;;;;;6283664;22;20057;-85
2022/07/29 02:39:59;;;;;;;13.23;7.95;;;588.80;2432.00;;;;;;6280244;22;19999;-86
2022/07/29 02:42:27;;;;;;;12.95;8.05;;;564.10;2432.00;;;;;;6276581;22;20320;-86
2022/07/29 02:44:53;;;;;;;10.50;8.55;;;588.80;2432.00;;;;;;6276582;22;20309;-89
2022/07/29 02:47:26;;;;;;;12.52;7.88;;;564.10;2432.00;;;;;;6276288;22;20000;-87
2022/07/29 02:49:54;;;;;;;;;;;588.80;2432.00;;;;;;6276867;22;20004;-88
2022/07/29 02:52:29;;;;;;;12.18;8.40;;;564.10;2432.00;;;;;;6276261;22;20311;-87
2022/07/29 02:55:00;;;;;;;9.82;7.32;;;564.00;2432.00;;;;;;6276601;22;20008;-86
2022/07/29 02:57:42;;;;;;;11.05;7.75;;;564.00;2432.00;;;;;;6276417;22;20006;-87
2022/07/29 03:00:09;;;;;;;12.60;7.55;;;564.00;2432.00;;;;;;6276009;22;20012;-86
2022/07/29 03:02:40;;;;;;;13.15;7.50;;;563.80;2432.00;;;;;;6278366;22;20031;-88
2022/07/29 03:05:09;;;;;;;10.48;7.15;;;564.00;2432.00;;;;;;6304121;22;19999;-87
2022/07/29 03:07:38;;;;;;;12.13;7.70;;;564.10;2432.00;;;;;;6302788;22;20003;-85
2022/07/29 03:10:06;;;;;;;9.07;7.03;;;563.90;2432.00;;;;;;6286610;22;20002;-86
2022/07/29 03:12:32;;;;;;;11.93;7.97;;;564.00;2432.00;;;;;;6286857;22;20469;-85
2022/07/29 03:15:00;;;;;;;9.25;6.85;;;564.00;2432.00;;;;;;6286686;22;20011;-87
2022/07/29 03:17:26;;;;;;;9.23;7.30;;;564.00;2432.00;;;;;;6278403;22;20404;-88
2022/07/29 03:19:53;;;;;;;12.40;8.68;;;564.00;2432.00;;;;;;6278401;22;20000;-87
2022/07/29 03:22:19;;;;;;;9.20;7.78;;;588.90;2432.00;;;;;;6278271;22;20007;-87
2022/07/29 03:24:46;;;;;;;12.88;7.68;;;538.30;2406.40;;;;;;6278335;22;19995;-88
2022/07/29 03:27:12;;;;;;;11.48;9.07;;;589.40;2432.00;;;;;;6278452;22;20502;-87
2022/07/29 03:29:38;;;;;;;13.70;8.77;;;563.50;2432.00;;;;;;6278418;22;20004;-88
2022/07/29 03:32:06;;;;;;;16.95;8.18;;;563.90;2432.00;;;;;;6278387;22;20003;-89
2022/07/29 03:34:32;;;;;;;13.93;8.20;;;563.70;2432.00;;;;;;6278070;22;20000;-87
2022/07/29 03:36:59;;;;;;;15.10;8.38;;;564.10;2432.00;;;;;;6278657;22;20335;-86
2022/07/29 03:39:31;;;;;;;14.50;8.23;;;563.80;2432.00;;;;;;6277790;22;20007;-88
2022/07/29 03:41:59;;;;;;;12.38;8.05;;;563.80;2432.00;;;;;;6278005;22;20084;-87
2022/07/29 03:44:27;;;;;;;14.40;8.73;;;563.90;2432.00;;;;;;6277859;22;20000;-87
2022/07/29 03:46:55;;;;;;;12.90;8.25;;;563.80;2432.00;;;;;;6277576;22;19995;-87
2022/07/29 03:49:23;;;;;;;11.57;8.13;;;563.70;2432.00;;;;;;6278087;22;20000;-88
2022/07/29 03:51:49;;;;;;;14.00;9.02;;;563.80;2432.00;;;;;;6277948;22;20007;-87
2022/07/29 03:54:16;;;;;;;13.55;9.23;;;563.70;2432.00;;;;;;6277604;22;20070;-87
2022/07/29 03:56:48;;;;;;;13.52;8.90;;;563.50;2432.00;;;;;;6277889;22;20079;-88
2022/07/29 03:59:15;;;;;;;12.40;8.05;;;563.60;2432.00;;;;;;6277800;22;19996;-85
2022/07/29 04:01:42;;;;;;;17.10;8.77;;;563.60;2432.00;;;;;;6277360;22;20030;-90
2022/07/29 04:04:08;;;;;;;13.00;8.70;;;563.60;2432.00;;;;;;6277768;22;19996;-86
2022/07/29 04:06:42;;;;;;;11.40;7.85;;;563.50;2432.00;;;;;;6277599;22;20011;-86
2022/07/29 04:09:09;;;;;;;14.77;9.00;;;563.50;2432.00;;;;;;6277926;22;20004;-87
2022/07/29 04:11:38;;;;;;;14.98;10.25;;;563.40;2432.00;;;;;;6277851;22;20308;-87
2022/07/29 04:14:04;;;;;;;18.80;9.93;;;563.60;2432.00;;;;;;6277926;22;20003;-85
2022/07/29 04:16:30;;;;;;;18.30;9.52;;;563.60;2432.00;;;;;;6277395;22;19999;-89
2022/07/29 04:18:57;;;;;;;18.95;9.57;;;563.60;2432.00;;;;;;6277598;22;20000;-87
2022/07/29 04:21:23;;;;;;;12.93;8.50;;;563.50;2432.00;;;;;;6277725;22;20048;-87
2022/07/29 04:23:49;;;;;;;18.90;10.32;;;563.60;2432.00;;;;;;6277456;22;20020;-87
2022/07/29 04:26:19;;;;;;;16.23;10.48;;;563.70;2432.00;;;;;;6277454;22;20003;-88
2022/07/29 04:28:45;;;;;;;14.20;9.02;;;563.50;2432.00;;;;;;6277683;22;20004;-86
2022/07/29 04:31:12;;;;;;;15.93;10.13;;;563.40;2432.00;;;;;;6277599;22;20062;-86
2022/07/29 04:33:39;;;;;;;15.35;10.23;;;563.60;2432.00;;;;;;6277873;22;20023;-86
2022/07/29 04:36:06;;;;;;;17.42;9.73;;;563.60;2432.00;;;;;;6279156;22;19999;-87
2022/07/29 04:38:32;;;;;;;21.15;10.77;;;563.60;2432.00;;;;;;6279166;22;20003;-87
2022/07/29 04:40:59;;;;;;;17.42;10.50;;;563.60;2432.00;;;;;;6279101;22;19996;-89
2022/07/29 04:43:25;;;;;;;14.60;10.23;;;563.20;2432.00;;;;;;6278737;22;20003;-88
2022/07/29 04:45:51;;;;;;;18.48;9.20;;;563.70;2432.00;;;;;;6279496;22;19995;-86
2022/07/29 04:48:18;;;;;;;17.52;10.45;;;563.60;2432.00;;;;;;6278665;22;20417;-87
2022/07/29 04:50:44;;;;;;;15.85;9.45;;;563.80;2432.00;;;;;;6279222;22;20053;-89
2022/07/29 04:53:10;;;;;;;18.40;9.95;;;563.50;2432.00;;;;;;6277824;22;20003;-87
2022/07/29 04:55:40;;;;;;;15.98;9.80;;;563.40;2432.00;;;;;;6277450;22;20007;-88
2022/07/29 04:58:07;;;;;;;13.57;9.98;;;563.20;2432.00;;;;;;6277224;22;20416;-87
2022/07/29 05:00:33;;;;;;;12.77;8.45;;;538.00;2406.40;;;;;;6277725;22;20375;-86
2022/07/29 05:02:59;;;;;;;15.60;10.30;;;563.60;2432.00;;;;;;6277486;22;20049;-88
2022/07/29 05:05:26;;;;;;;13.18;8.68;;;563.90;2432.00;;;;;;6277309;22;20003;-87
2022/07/29 05:07:53;;;;;;;11.40;8.45;;;563.90;2432.00;;;;;;6277218;22;20079;-90
2022/07/29 05:10:19;;;;;;;9.95;8.55;;;563.90;2432.00;;;;;;6277388;22;20006;-87
2022/07/29 05:12:46;;;;;;;10.38;8.00;;;563.80;2432.00;;;;;;6277280;22;20003;-87
2022/07/29 05:15:12;;;;;;;13.50;8.02;;;564.00;2432.00;;;;;;6277451;22;19995;-89
2022/07/29 05:17:38;;;;;;;10.15;8.88;;;563.80;2432.00;;;;;;6277264;22;20000;-87
2022/07/29 05:20:05;;;;;;;13.13;8.07;;;563.90;2432.00;;;;;;6278006;22;20033;-85
2022/07/29 05:22:32;;;;;;;10.80;9.05;;;563.90;2432.00;;;;;;6277115;22;20082;-87
2022/07/29 05:24:58;;;;;;;10.13;8.02;;;564.00;2432.00;;;;;;6277060;22;19999;-87
2022/07/29 05:27:40;;;;;;;13.93;8.82;;;563.90;2432.00;;;;;;6276744;22;20325;-87
2022/07/29 05:30:44;;;;;;;10.63;8.32;;;563.90;2432.00;;;;;;6277030;22;20000;-91
2022/07/29 05:36:45;;;;;;;13.18;9.23;;;588.90;2432.00;;;;;;6252922;22;20007;-89
2022/07/29 05:39:12;;;;;;;11.30;8.88;;;588.90;2432.00;;;;;;6276445;22;20048;-87
2022/07/29 05:41:47;;;;;;;11.07;8.18;;;589.40;2432.00;;;;;;6278003;22;19995;-89
2022/07/29 05:44:14;;;;;;;11.10;8.85;;;589.30;2432.00;;;;;;6276793;22;20025;-91
2022/07/29 05:46:43;;;;;;;14.68;11.75;;;;;;;;;;6277813;22;19995;-89
2022/07/29 05:49:15;;;;;;;12.38;8.77;;;;;;;;;;6277637;22;19995;-89
2022/07/29 05:51:44;;;;;;;12.80;8.45;;;;;;;;;;6277216;22;20490;-90
2022/07/29 05:54:22;;;;;;;9.85;8.35;;;;;;;;;;6277860;22;20024;-92
2022/07/29 05:56:49;;;;;;;12.68;8.70;;;;;;;;;;6277220;22;20474;-87
2022/07/29 05:59:18;;;;;;;12.57;9.88;;;;;;;;;;6278440;22;20004;-91
2022/07/29 06:02:12;;;;;;;10.65;8.75;;;;;;;;;;6276989;22;20439;-90
2022/07/29 06:04:42;;;;;;;15.57;11.75;;;;;;;;;;6277222;22;20000;-88
2022/07/29 06:07:08;;;;;;;13.18;9.25;;;;;;;;;;6277139;22;20007;-85
2022/07/29 06:09:37;;;;;;;13.80;8.60;;;589.70;2432.00;;;;;;6277117;22;20010;-90
2022/07/29 06:12:09;;;;;;;14.00;9.45;;;589.50;2432.00;;;;;;6277096;22;20000;-91
2022/07/29 06:14:37;;;;;;;17.65;8.98;;;589.60;2432.00;;;;;;6275203;22;20304;-91
2022/07/29 06:17:05;;;;;;;13.40;9.15;;;563.70;2432.00;;;;;;6276694;22;20145;-92
2022/07/29 06:19:31;;;;;;;12.18;8.13;;;589.70;2432.00;;;;;;6276746;22;20036;-87
2022/07/29 06:21:57;;;;;;;11.73;8.25;;;589.70;2432.00;;;;;;6276501;22;19995;-89
2022/07/29 06:24:24;;;;;;;12.15;8.68;;;589.70;2432.00;;;;;;6276610;22;20003;-88
2022/07/29 06:26:50;;;;;;;13.18;8.27;;;614.40;2432.00;;;;;;6276565;22;20027;-85
2022/07/29 06:29:16;;;;;;;15.32;8.75;;;614.80;2432.00;;;;;;6276356;22;20008;-86
2022/07/29 06:31:43;;;;;;;15.43;9.13;;;614.70;2432.00;;;;;;6276092;22;20006;-89
2022/07/29 06:34:09;;;;;;;14.13;10.27;;;614.80;2432.00;;;;;;6276737;22;20007;-88
2022/07/29 06:36:36;;;;;;;12.57;8.70;;;614.80;2432.00;;;;;;6276397;22;20008;-91
2022/07/29 06:39:05;;;;;;;16.42;9.07;;;614.70;2432.00;;;;;;6276376;22;20026;-88
2022/07/29 06:41:31;;;;;;;12.73;9.63;;;614.80;2432.00;;;;;;6278311;22;20034;-86
2022/07/29 06:44:07;;;;;;;14.00;9.10;;;614.70;2432.00;;;;;;6278448;22;20019;-88
2022/07/29 06:46:33;;;;;;;10.55;8.98;;;614.80;2432.00;;;;;;6278658;22;19996;-88
2022/07/29 06:49:01;;;;;;;14.82;8.70;;;615.00;2432.00;;;;;;6278390;22;20023;-85
2022/07/29 06:51:27;;;;;;;12.82;9.32;;;615.10;2432.00;;;;;;6278465;22;20010;-89
2022/07/29 06:53:53;;;;;;;11.95;8.82;;;614.90;2432.00;;;;;;6278790;22;20007;-88
2022/07/29 06:56:19;;;;;;;12.68;10.15;;;615.30;2432.00;;;;;;6278390;22;20019;-86
2022/07/29 06:58:46;;;;;;;15.27;10.45;;;640.20;2432.00;;;;;;6278421;22;20086;-86
2022/07/29 07:01:12;;;;;;;10.43;8.40;;;640.30;2432.00;;;;;;6277939;22;20012;-86
2022/07/29 07:03:38;;;;;;;11.98;8.20;;;640.40;2432.00;;;;;;6278116;22;20405;-83
2022/07/29 07:06:04;;;;;;;15.43;9.32;;;640.50;2432.00;;;;;;6278014;22;20002;-85
2022/07/29 07:08:31;;;;;;;11.05;8.57;;;;;;;;;;6277845;22;20078;-86
2022/07/29 07:10:57;;;;;;;14.88;8.63;;;;;;;;;;6278359;22;20006;-87
2022/07/29 07:13:23;;;;;;;12.25;8.60;;;;;;;;;;6278775;22;20003;-88
2022/07/29 07:15:56;;;;;;;13.88;8.77;;;;;;;;;;6279392;22;19996;-92
2022/07/29 07:18:22;;;;;;;16.15;9.82;;;;;;;;;;6278817;22;20038;-80
2022/07/29 07:20:48;;;;;;;14.18;9.43;;;;;;;;;;6277302;22;19988;-81
2022/07/29 07:23:14;;;;;;;14.43;10.60;;;666.50;2432.00;;;;;;6278073;22;20223;-83
2022/07/29 07:25:40;;;;;;;11.98;10.20;;;666.50;2432.00;;;;;;6278764;22;20019;-82
2022/07/29 07:28:06;;;;;;;15.15;8.65;;;;;;;;;;6277332;22;20428;-81
2022/07/29 07:30:32;;;;;;;12.63;9.45;;;;;;;;;;6277676;22;19996;-81
2022/07/29 07:32:58;;;;;;;10.35;9.15;;;;;;;;;;6277168;22;20042;-81
2022/07/29 07:35:24;;;;;;;11.40;8.38;;;;;;;;;;6279728;22;20046;-80
2022/07/29 07:37:50;;;;;;;10.25;9.25;;;;;;;;;;6287370;22;20002;-79
2022/07/29 07:40:16;;;;;;;10.13;9.07;;;691.40;2432.00;;;;;;6287432;22;20010;-79
2022/07/29 07:42:42;;;;;;;13.15;9.27;;;691.40;2432.00;;;;;;6281839;22;20079;-81
2022/07/29 07:45:09;;;;;;;10.00;8.93;;;;;;;;;;6277250;22;20421;-80
2022/07/29 07:47:39;;;;;;;17.75;9.40;;;;;;;;;;6277229;22;19999;-81
2022/07/29 07:50:09;;;;;;;12.88;10.63;;;;;;;;;;6277224;22;20003;-81
2022/07/29 07:52:46;;;;;;;10.35;9.35;;;;;;;;;;6276490;22;20006;-80
2022/07/29 07:55:12;;;;;;;12.50;9.05;;;;;;;;;;6295647;22;19988;-80
2022/07/29 07:57:38;;;;;;;11.63;9.73;;;;;;;;;;6305339;22;19996;-80
2022/07/29 08:00:04;;;;;;;12.02;9.60;;;;;;;;;;6291426;22;20041;-81
2022/07/29 08:02:30;;;;;;;12.85;9.07;;;;;;;;;;6278766;22;20003;-81
2022/07/29 08:04:56;;;;;;;10.13;8.82;;;;;;;;;;6278098;22;20002;-80
2022/07/29 08:07:23;;;;;;;10.65;9.15;;;;;;;;;;6277780;22;20045;-81
2022/07/29 08:09:48;;;;;;;13.48;9.75;;;717.40;2432.00;;;;;;6276909;22;20424;-81
2022/07/29 08:12:14;;;;;;;13.50;9.70;;;;;;;;;;6276701;22;20003;-81
2022/07/29 08:14:41;;;;;;;11.60;9.85;;;;;;;;;;6276360;22;20050;-81
2022/07/29 08:17:07;;;;;;;14.68;9.13;;;;;;;;;;6276632;22;19995;-82
2022/07/29 08:19:33;;;;;;;12.95;9.98;;;742.40;2432.00;;;;;;6276225;22;20027;-81
2022/07/29 08:21:58;;;;;;;11.60;8.50;;;742.40;2432.00;;;;;;6276466;22;20022;-81
2022/07/29 08:24:42;;;;;;;11.05;8.68;;;742.50;2432.00;;;;;;6276126;22;20031;-80
2022/07/29 08:27:12;;;;;;;10.18;8.43;;;742.60;2432.00;;;;;;6276024;22;20034;-84
2022/07/29 08:29:38;;;;;;;10.02;8.93;;;742.80;2432.00;;;;;;6276540;22;20003;-83
2022/07/29 08:32:05;;;;;;;10.80;8.60;;;742.60;2432.00;;;;;;6276665;22;20340;-83
2022/07/29 08:34:31;;;;;;;10.02;8.65;;;742.90;2432.00;;;;;;6276277;22;20053;-82
2022/07/29 08:36:58;;;;;;;12.18;9.55;;;768.00;2432.00;;;;;;6276366;22;20068;-83
2022/07/29 08:39:24;;;;;;;10.77;9.60;;;743.00;2432.00;;;;;;6276291;22;20038;-83
2022/07/29 08:41:51;;;;;;;11.77;9.80;;;742.90;2432.00;;;;;;6276120;22;20000;-83
2022/07/29 08:44:21;;;;;;;9.77;7.75;;;742.70;2432.00;;;;;;6276331;22;20038;-83
2022/07/29 08:46:47;;;;;;;9.27;7.95;;;768.10;2432.00;;;;;;6276450;22;19998;-83
2022/07/29 08:49:13;;;;;;;13.18;8.15;;;768.10;2432.00;;;;;;6276225;22;20052;-83
2022/07/29 08:51:41;;;;;;;10.57;7.40;;;768.50;2432.00;;;;;;6276329;22;20087;-82
2022/07/29 08:54:09;;;;;;;12.70;7.32;;;768.40;2432.00;;;;;;6276107;22;20000;-83
2022/07/29 08:56:36;;;;;;;12.02;7.53;;;768.50;2432.00;;;;;;6276567;22;20433;-83
2022/07/29 08:59:05;;;;;;;8.82;7.93;;;768.60;2406.40;;;;;;6276126;22;20050;-83
2022/07/29 09:01:33;;;;;;;10.02;8.43;;;;;;;;;;6275765;22;20007;-83
2022/07/29 09:04:00;;;;;;;10.60;8.80;;;;;;;;;;6275540;22;19995;-83
2022/07/29 09:06:32;;;;;;;8.32;7.13;;;;;;;;;;6276086;22;20075;-84
2022/07/29 09:08:59;;;;;;;16.23;9.50;;;;;;;;;;6276210;22;19996;-84
2022/07/29 09:11:25;;;;;;;12.35;7.75;;;;;;;;;;6275773;22;20000;-84
2022/07/29 09:13:51;;;;;;;9.45;7.60;;;794.00;2278.40;;;;;;6277556;22;19994;-84
2022/07/29 09:16:17;;;;;;;11.23;7.32;;;768.90;2252.80;;;;;;6275904;22;20083;-85
2022/07/29 09:18:45;;;;;;;9.98;8.93;;;768.60;2252.80;;;;;;6275834;22;20286;-85
2022/07/29 09:24:03;;;;;;;8.07;6.90;;;793.70;2329.60;;;;;;6276929;22;20048;-83
2022/07/29 09:26:33;;;;;;;13.45;7.70;;;;;;;;;;6276091;22;19996;-84
2022/07/29 09:29:00;;;;;;;9.27;6.80;;;;;;;;;;6275889;22;20439;-84
2022/07/29 09:31:36;;;;;;;8.20;6.63;;;;;;;;;;6275708;22;19992;-83
2022/07/29 09:34:03;;;;;;;8.73;7.57;;;;;;;;;;6275949;22;20309;-84
2022/07/29 09:36:29;;;;;;;9.82;7.07;;;819.50;2252.80;;;;;;6275795;22;19996;-83
2022/07/29 09:39:02;;;;;;;7.22;6.53;;;;;;;;;;6275453;22;20038;-84
2022/07/29 09:41:29;;;;;;;11.07;6.95;;;;;;;;;;6276068;22;20349;-83
2022/07/29 09:43:56;;;;;;;9.60;6.50;;;;;;;;;;6277340;22;19992;-84
2022/07/29 09:46:22;;;;;;;10.50;8.60;;;;;;;;;;6275549;22;20000;-84
2022/07/29 09:49:10;;;;;;;9.30;7.65;;;;;;;;;;6275866;22;20023;-82
2022/07/29 09:51:37;;;;;;;10.60;7.00;;;;;;;;;;6275472;22;20002;-83
2022/07/29 09:54:21;;;;;;;8.98;7.40;;;;;;;;;;6275807;22;20306;-85
2022/07/29 09:56:48;;;;;;;8.38;7.47;;;;;;;;;;6275744;22;20018;-83
2022/07/29 09:59:14;;;;;;;11.25;8.23;;;;;;;;;;6275278;22;20054;-81
2022/07/29 10:01:40;;;;;;;7.68;6.30;;;;;;;;;;6275494;22;20408;-82
2022/07/29 10:04:06;;;;;;;8.20;6.32;;;;;;;;;;6275738;22;19996;-82
2022/07/29 10:06:32;;;;;;;8.32;7.15;;;820.00;2124.80;;;;;;6275443;22;20000;-83
2022/07/29 10:09:09;;;;;;;8.60;6.30;;;820.10;2150.40;;;;;;6275749;22;20023;-83
2022/07/29 10:11:35;;;;;;;9.93;6.82;;;;;;;;;;6275780;22;20436;-84
2022/07/29 10:14:03;;;;;;;8.32;7.32;;;;;;;;;;6275374;22;19999;-85
2022/07/29 10:16:32;;;;;;;8.02;6.32;;;;;;;;;;6277976;22;20002;-80
2022/07/29 10:19:01;;;;;;;7.35;6.43;;;;;;;;;;6277802;22;20008;-80
2022/07/29 10:21:27;;;;;;;10.20;7.22;;;;;;;;;;6277485;22;20002;-82
2022/07/29 10:23:54;;;;;;;8.70;7.32;;;;;;;;;;6278033;22;20405;-83
2022/07/29 10:26:20;;;;;;;7.45;6.40;;;;;;;;;;6277339;22;20121;-81
2022/07/29 10:28:46;;;;;;;11.05;6.80;;;;;;;;;;6277563;22;20408;-82
2022/07/29 10:31:25;;;;;;;7.95;6.90;;;;;;;;;;6277693;22;20035;-81
2022/07/29 10:33:57;;;;;;;8.23;6.35;;;;;;;;;;6277262;22;19999;-81
2022/07/29 10:36:23;;;;;;;7.82;6.10;;;;;;;;;;6277639;22;20018;-82
2022/07/29 10:38:53;;;;;;;11.13;9.93;;;;;;;;;;6277383;22;20090;-81
2022/07/29 10:41:28;;;;;;;9.55;6.95;;;;;;;;;;6277147;22;20401;-81
2022/07/29 10:44:01;;;;;;;10.05;7.70;;;896.00;2048.00;;;;;;6277516;22;20006;-82
2022/07/29 10:46:28;;;;;;;9.13;6.45;;;871.30;2022.40;;;;;;6277402;22;20301;-82
2022/07/29 10:49:08;;;;;;;8.82;6.47;;;;;;;;;;6277382;22;19999;-82
2022/07/29 10:52:02;;;;;;;6.53;5.80;;;896.10;1945.60;;;;;;6277577;22;20085;-82
2022/07/29 10:54:41;;;;;;;7.20;5.68;;;896.00;1945.60;;;;;;6277039;22;20078;-82
2022/07/29 10:57:16;;;;;;;8.25;6.28;;;871.30;1920.00;;;;;;6277418;22;20130;-82
2022/07/29 10:59:47;;;;;;;10.27;6.65;;;871.10;1920.00;;;;;;6276659;22;20495;-82
2022/07/29 11:02:35;;;;;;;8.77;7.57;;;871.30;1971.20;;;;;;6277164;22;20440;-81
2022/07/29 11:05:08;;;;;;;7.05;5.82;;;896.20;1996.80;;;;;;6277190;22;19992;-81
2022/07/29 11:07:35;;;;;;;6.85;6.13;;;;;;;;;;6277299;22;20082;-82
2022/07/29 11:10:16;;;;;;;7.32;5.75;;;;;;;;;;6277096;22;20000;-83
2022/07/29 11:12:42;;;;;;;7.43;6.10;;;;;;;;;;6277285;22;20416;-81
2022/07/29 11:15:16;;;;;;;8.10;6.03;;;;;;;;;;6276945;22;20004;-81
2022/07/29 11:17:58;;;;;;;10.02;6.35;;;;;;;;;;6276878;22;19998;-81
2022/07/29 11:20:34;;;;;;;11.07;6.93;;;;;;;;;;6278594;22;20026;-79
2022/07/29 11:23:00;;;;;;;7.80;6.32;;;;;;;;;;6276389;22;20057;-80
2022/07/29 11:25:27;;;;;;;11.68;10.13;;;;;;;;;;6276709;22;20417;-85
2022/07/29 11:27:54;;;;;;;8.88;6.88;;;;;;;;;;6276227;22;20078;-81
2022/07/29 11:30:21;;;;;;;8.88;6.55;;;;;;;;;;6276730;22;20004;-81
2022/07/29 11:32:48;;;;;;;7.53;6.40;;;;;;;;;;6277099;22;20006;-81
2022/07/29 11:35:17;;;;;;;8.75;6.50;;;;;;;;;;6278436;22;20002;-81
2022/07/29 11:37:43;;;;;;;9.18;6.65;;;;;;;;;;6276638;22;20325;-81
2022/07/29 11:40:14;;;;;;;10.02;7.03;;;;;;;;;;6276628;22;20027;-81
2022/07/29 11:42:41;;;;;;;12.30;7.82;;;;;;;;;;6276646;22;19999;-81
2022/07/29 11:45:15;;;;;;;13.35;8.82;;;;;;;;;;6276526;22;19999;-82
2022/07/29 11:47:47;;;;;;;9.52;7.80;;;;;;;;;;6276735;22;20003;-82
2022/07/29 11:50:18;;;;;;;6.65;5.95;;;;;;;;;;6276626;22;20003;-82
2022/07/29 11:52:49;;;;;;;10.77;6.43;;;;;;;;;;6276796;22;20023;-83
2022/07/29 11:55:19;;;;;;;12.23;7.20;;;;;;;;;;6276735;22;20669;-82
2022/07/29 11:57:56;;;;;;;7.53;6.72;;;;;;;;;;6276312;22;20517;-82
2022/07/29 12:00:24;;;;;;;11.68;7.45;;;;;;;;;;6276429;22;20429;-83
2022/07/29 12:02:50;;;;;;;11.15;6.38;;;;;;;;;;6277102;22;20003;-82
2022/07/29 12:05:17;;;;;;;10.13;6.25;;;;;;;;;;6276729;22;19995;-85
2022/07/29 12:07:43;;;;;;;10.18;8.02;;;;;;;;;;6276932;22;20421;-83
2022/07/29 12:10:09;;;;;;;7.82;6.28;;;;;;;;;;6276984;22;20484;-85
2022/07/29 12:12:36;;;;;;;7.72;6.75;;;;;;;;;;6277109;22;20409;-86
2022/07/29 12:15:16;;;;;;;9.38;6.70;;;;;;;;;;6277382;22;20350;-88
2022/07/29 12:17:43;;;;;;;8.40;6.30;;;;;;;;;;6277460;22;20003;-85
2022/07/29 12:20:09;;;;;;;11.63;6.40;;;;;;;;;;6276978;22;20015;-85
2022/07/29 12:22:40;;;;;;;8.68;6.50;;;947.30;1766.40;;;;;;6277413;22;20404;-86
2022/07/29 12:25:15;;;;;;;7.37;6.27;;;;;;;;;;6277399;22;19995;-86
2022/07/29 12:27:43;;;;;;;10.50;6.13;;;;;;;;;;6277245;22;20479;-85
2022/07/29 12:30:13;;;;;;;7.85;5.95;;;;;;;;;;6277264;22;20004;-88
2022/07/29 12:32:43;;;;;;;10.43;6.97;;;;;;;;;;6277430;22;20000;-87
2022/07/29 12:35:11;;;;;;;10.98;9.40;;;;;;;;;;6277339;22;20011;-86
2022/07/29 12:37:39;;;;;;;10.68;6.90;;;;;;;;;;6277063;22;20409;-87
2022/07/29 12:40:07;;;;;;;6.95;6.25;;;;;;;;;;6276631;22;20085;-85
2022/07/29 12:42:33;;;;;;;9.80;6.35;;;;;;;;;;6277257;22;19999;-85
2022/07/29 12:44:59;;;;;;;6.85;6.15;;;;;;;;;;6280387;22;20007;-87
2022/07/29 12:47:26;;;;;;;10.10;6.28;;;;;;;;;;6304248;22;19996;-87
2022/07/29 12:50:07;;;;;;;11.70;8.60;;;;;;;;;;6299870;22;20075;-84
2022/07/29 12:52:33;;;;;;;;;;;;;;;;;;6292716;22;20000;-84
2022/07/29 12:55:00;;;;;;;8.95;6.70;;;;;;;;;;6294901;22;19895;-86
2022/07/29 12:57:27;;;;;;;7.45;6.60;;;;;;;;;;6285417;22;20023;-86
2022/07/29 13:00:04;;;;;;;8.27;6.47;;;;;;;;;;6276629;22;20038;-87
2022/07/29 13:02:31;;;;;;;8.57;6.18;;;;;;;;;;6276716;22;19999;-87
2022/07/29 13:04:57;;;;;;;9.77;6.25;;;;;;;;;;6276520;22;20074;-88
2022/07/29 13:07:25;;;;;;;9.45;6.43;;;;;;;;;;6276881;22;20002;-86
2022/07/29 13:09:51;;;;;;;7.45;5.90;;;;;;;;;;6276769;22;20027;-87
2022/07/29 13:12:17;;;;;;;9.07;6.47;;;947.90;1638.40;;;;;;6276856;22;20003;-89
2022/07/29 13:14:48;;;;;;;18.45;6.13;;;947.90;1638.40;;;;;;6276821;22;20301;-86